Time;durP1;ratioP1;P1;durP2;ratioP2;P2;SDS_P1;SDS_P2;PMS_P1;PMS_P2;Temp;Humidity;BMP_temperature;BMP_pressure;BME280_temperature;BME280_humidity;BME280_pressure;Samples;Min_cycle;Max_cycle;Signal;HPM_P1;HPM_P2
2023/10/22 00:38:08;;;;;;;0.00;0.00;;;;;;;12.49;94.86;94613.91;4309241;33;20220;-61
2023/10/22 00:40:34;;;;;;;0.00;0.00;;;;;;;12.51;94.91;94619.69;4314851;33;20205;-61
2023/10/22 00:43:05;;;;;;;0.00;0.00;;;;;;;12.61;94.35;94614.00;4263766;33;20190;-61
2023/10/22 00:45:35;;;;;;;0.37;0.20;;;;;;;12.60;94.10;94626.53;4289260;33;20285;-61
2023/10/22 00:48:02;;;;;;;0.00;0.00;;;;;;;12.52;94.50;94623.91;4270917;33;20293;-61
2023/10/22 00:50:29;;;;;;;0.03;0.03;;;;;;;12.47;94.28;94621.44;4314874;33;25755;-61
2023/10/22 00:52:56;;;;;;;0.30;0.20;;;;;;;12.54;94.34;94627.03;4281938;33;20233;-61
2023/10/22 00:55:22;;;;;;;0.40;0.20;;;;;;;12.62;94.05;94626.19;4293892;33;20198;-61
2023/10/22 00:57:49;;;;;;;0.00;0.00;;;;;;;12.46;94.39;94631.31;4319469;33;20195;-61
2023/10/22 01:00:28;;;;;;;0.00;0.00;;;;;;;12.51;94.25;94631.09;4320915;33;20193;-61
2023/10/22 01:02:53;;;;;;;0.00;0.00;;;;;;;12.51;94.14;94632.97;4318049;33;20356;-61
2023/10/22 01:05:18;;;;;;;0.03;0.03;;;;;;;12.54;93.94;94635.78;4296152;33;20206;-61
2023/10/22 01:07:54;;;;;;;0.77;0.43;;;;;;;12.50;94.10;94636.75;4303147;33;20236;-61
2023/10/22 01:10:19;;;;;;;0.00;0.00;;;;;;;12.42;94.97;94638.38;4307802;33;20204;-60
2023/10/22 01:12:45;;;;;;;0.20;0.20;;;;;;;12.42;94.47;94634.94;4319281;33;20182;-61
2023/10/22 01:15:11;;;;;;;0.10;0.10;;;;;;;12.20;94.74;94639.41;4280611;33;20235;-61
2023/10/22 01:17:41;;;;;;;0.00;0.00;;;;;;;12.47;94.04;94637.41;4295747;33;20198;-61
2023/10/22 01:20:09;;;;;;;0.30;0.30;;;;;;;12.43;93.89;94625.84;4297470;33;20251;-61
2023/10/22 01:22:36;;;;;;;0.00;0.00;;;;;;;12.49;94.24;94635.97;4233515;33;20211;-61
2023/10/22 01:25:03;;;;;;;0.40;0.20;;;;;;;12.47;93.79;94632.09;4302108;33;20212;-61
2023/10/22 01:27:32;;;;;;;0.00;0.00;;;;;;;12.54;93.06;94632.34;4287757;33;20425;-61
2023/10/22 01:29:59;;;;;;;0.10;0.10;;;;;;;12.51;93.72;94633.75;4320603;33;20201;-60
2023/10/22 01:32:24;;;;;;;0.13;0.13;;;;;;;12.55;93.35;94639.22;4289015;33;20205;-62
2023/10/22 01:34:51;;;;;;;0.00;0.00;;;;;;;12.38;94.03;94637.44;4279900;33;20257;-60
2023/10/22 01:37:17;;;;;;;0.10;0.10;;;;;;;12.46;93.81;94635.84;4309510;33;20190;-60
2023/10/22 01:39:44;;;;;;;0.20;0.20;;;;;;;12.37;94.27;94635.87;4307438;33;20193;-61
2023/10/22 01:42:10;;;;;;;0.00;0.00;;;;;;;12.45;94.08;94639.62;4289544;33;20191;-61
2023/10/22 01:44:37;;;;;;;0.10;0.10;;;;;;;12.46;94.07;94636.63;4283922;33;20191;-61
2023/10/22 01:47:04;;;;;;;0.10;0.10;;;;;;;12.50;93.45;94636.75;4308872;33;20194;-61
2023/10/22 01:49:32;;;;;;;0.00;0.00;;;;;;;12.48;93.68;94641.59;4299295;33;20380;-61
2023/10/22 01:51:57;;;;;;;0.03;0.03;;;;;;;12.45;93.68;94639.62;4307994;33;20227;-61
2023/10/22 01:54:24;;;;;;;0.10;0.10;;;;;;;12.50;94.17;94650.03;4302448;33;20190;-60
2023/10/22 01:56:52;;;;;;;0.00;0.00;;;;;;;12.55;93.66;94652.53;4271611;33;20186;-61
2023/10/22 01:59:20;;;;;;;0.00;0.00;;;;;;;12.47;93.65;94654.12;4322652;33;20260;-60
2023/10/22 02:01:46;;;;;;;1.13;0.30;;;;;;;12.55;93.59;94649.87;4302932;33;20191;-60
2023/10/22 02:04:12;;;;;;;0.10;0.10;;;;;;;12.57;93.52;94653.78;4318635;33;20193;-61
2023/10/22 02:06:40;;;;;;;0.10;0.10;;;;;;;12.56;93.87;94656.75;4318202;33;20221;-61
2023/10/22 02:09:08;;;;;;;0.00;0.00;;;;;;;12.55;93.49;94653.31;4328348;33;20208;-60
2023/10/22 02:11:35;;;;;;;0.00;0.00;;;;;;;12.61;92.93;94652.03;4325799;33;20198;-61
2023/10/22 02:14:00;;;;;;;0.00;0.00;;;;;;;12.60;92.73;94658.47;4310851;33;20198;-61
2023/10/22 02:16:28;;;;;;;0.00;0.00;;;;;;;12.54;92.67;94661.62;4306718;33;20204;-61
2023/10/22 02:18:56;;;;;;;3.03;0.33;;;;;;;12.57;92.88;94659.09;4323237;33;20253;-60
2023/10/22 02:21:26;;;;;;;0.27;0.27;;;;;;;12.59;93.14;94661.44;4328525;33;20244;-61
2023/10/22 02:23:53;;;;;;;1.70;0.30;;;;;;;12.65;92.34;94662.81;4291084;33;20193;-61
2023/10/22 02:26:19;;;;;;;0.00;0.00;;;;;;;12.32;92.60;94662.66;4283112;33;20190;-60
2023/10/22 02:28:46;;;;;;;0.00;0.00;;;;;;;12.46;93.05;94668.56;4296529;33;20268;-61
2023/10/22 02:31:12;;;;;;;0.20;0.13;;;;;;;12.32;93.72;94671.41;4307751;33;20213;-61
2023/10/22 02:33:39;;;;;;;0.00;0.00;;;;;;;12.37;93.67;94678.44;4323354;33;20198;-62
2023/10/22 02:36:06;;;;;;;0.00;0.00;;;;;;;12.39;93.82;94678.91;4315582;33;20198;-61
2023/10/22 02:38:36;;;;;;;0.00;0.00;;;;;;;12.45;93.82;94674.19;4313103;32;20208;-61
2023/10/22 02:41:03;;;;;;;0.03;0.03;;;;;;;12.31;94.05;94679.72;4291100;33;20238;-61
2023/10/22 02:43:33;;;;;;;0.60;0.13;;;;;;;12.34;94.55;94677.19;4303357;33;20263;-61
2023/10/22 02:46:01;;;;;;;0.00;0.00;;;;;;;12.39;94.96;94669.06;4298022;33;20298;-61
2023/10/22 02:48:29;;;;;;;0.10;0.10;;;;;;;12.30;95.25;94678.94;4323135;33;20201;-60
2023/10/22 02:50:56;;;;;;;0.20;0.20;;;;;;;12.23;95.65;94684.00;4328121;33;20198;-61
2023/10/22 02:53:21;;;;;;;0.00;0.00;;;;;;;12.22;95.87;94681.66;4293389;33;20273;-61
2023/10/22 02:55:58;;;;;;;0.00;0.00;;;;;;;12.16;96.25;94681.03;4305991;33;20193;-61
2023/10/22 02:58:24;;;;;;;0.00;0.00;;;;;;;12.31;95.94;94693.00;4281939;33;20242;-61
2023/10/22 03:00:49;;;;;;;0.00;0.00;;;;;;;12.41;94.89;94686.56;4306955;33;20205;-61
2023/10/22 03:03:16;;;;;;;0.10;0.10;;;;;;;12.44;94.98;94681.41;4311775;33;20221;-61
2023/10/22 03:05:41;;;;;;;0.00;0.00;;;;;;;12.47;94.91;94687.97;4309202;33;20190;-61
2023/10/22 03:08:11;;;;;;;0.20;0.20;;;;;;;12.50;94.58;94685.41;4304971;33;20262;-60
2023/10/22 03:10:40;;;;;;;0.00;0.00;;;;;;;12.48;94.47;94692.94;4289875;33;20198;-61
2023/10/22 03:13:07;;;;;;;0.00;0.00;;;;;;;12.46;94.79;94684.53;4302593;33;20193;-61
2023/10/22 03:15:34;;;;;;;0.10;0.10;;;;;;;12.39;94.84;94684.22;4312991;33;20198;-61
2023/10/22 03:18:24;;;;;;;5.00;0.20;;;;;;;12.46;94.79;94679.19;4316212;33;20251;-61
2023/10/22 03:21:00;;;;;;;0.00;0.00;;;;;;;12.44;93.83;94685.94;4315196;33;20348;-61
2023/10/22 03:23:26;;;;;;;0.10;0.10;;;;;;;12.48;93.75;94687.59;4292847;33;20202;-61
2023/10/22 03:25:52;;;;;;;0.00;0.00;;;;;;;12.36;94.57;94684.88;4276406;33;20246;-61
2023/10/22 03:28:19;;;;;;;0.00;0.00;;;;;;;12.42;94.46;94682.81;4287596;33;20190;-61
2023/10/22 03:30:45;;;;;;;0.17;0.17;;;;;;;12.43;94.16;94687.81;4301120;33;20217;-60
2023/10/22 03:33:12;;;;;;;0.00;0.00;;;;;;;12.46;94.13;94689.06;4305813;33;20190;-60
2023/10/22 03:35:49;;;;;;;0.17;0.17;;;;;;;12.48;93.90;94690.28;4317431;33;20232;-61
2023/10/22 03:38:14;;;;;;;0.00;0.00;;;;;;;12.45;93.93;94682.19;4319827;33;20194;-62
2023/10/22 03:40:45;;;;;;;0.00;0.00;;;;;;;12.44;93.46;94691.25;4325627;33;20264;-61
2023/10/22 03:43:10;;;;;;;0.00;0.00;;;;;;;12.40;93.34;94683.13;4318658;33;20194;-61
2023/10/22 03:45:37;;;;;;;0.00;0.00;;;;;;;12.48;92.83;94682.28;4329072;33;20209;-60
2023/10/22 03:48:05;;;;;;;0.00;0.00;;;;;;;12.43;92.63;94687.03;4290223;33;20206;-61
2023/10/22 03:50:32;;;;;;;0.27;0.27;;;;;;;12.44;93.13;94688.59;4317212;33;20197;-61
2023/10/22 03:52:58;;;;;;;0.40;0.10;;;;;;;12.36;92.79;94688.31;4314104;33;20202;-61
2023/10/22 03:55:27;;;;;;;0.00;0.00;;;;;;;12.52;92.53;94693.84;4311008;33;20189;-61
2023/10/22 03:58:02;;;;;;;0.00;0.00;;;;;;;12.31;93.21;94698.34;4307580;33;20189;-61
2023/10/22 04:00:30;;;;;;;0.10;0.10;;;;;;;12.32;93.29;94690.03;4310702;33;20273;-61
2023/10/22 04:02:56;;;;;;;0.00;0.00;;;;;;;12.37;92.59;94689.09;4291697;33;20274;-60
2023/10/22 04:05:22;;;;;;;0.10;0.10;;;;;;;12.25;93.00;94695.09;4311053;33;20194;-61
2023/10/22 04:07:49;;;;;;;0.00;0.00;;;;;;;12.23;92.91;94691.97;4271057;33;20201;-61
2023/10/22 04:10:15;;;;;;;0.00;0.00;;;;;;;12.38;92.71;94691.44;4318081;33;20250;-61
2023/10/22 04:12:40;;;;;;;0.00;0.00;;;;;;;12.35;91.87;94697.38;4303137;33;20197;-61
2023/10/22 04:15:08;;;;;;;0.10;0.00;;;;;;;12.32;92.21;94700.69;4309899;33;20266;-61
2023/10/22 04:17:38;;;;;;;0.10;0.10;;;;;;;12.42;91.86;94701.44;4281500;33;20212;-61
2023/10/22 04:20:04;;;;;;;0.10;0.10;;;;;;;12.30;92.15;94702.88;4300768;33;20185;-61
2023/10/22 04:22:29;;;;;;;0.10;0.10;;;;;;;12.39;92.43;94711.59;4318637;33;20190;-61
2023/10/22 04:24:56;;;;;;;6.10;0.17;;;;;;;12.35;92.44;94708.03;4312316;33;20257;-61
2023/10/22 04:27:24;;;;;;;0.00;0.00;;;;;;;12.39;91.59;94711.59;4307000;33;20251;-61
2023/10/22 04:29:52;;;;;;;0.00;0.00;;;;;;;12.20;91.93;94716.53;4318508;33;20252;-60
2023/10/22 04:32:19;;;;;;;0.00;0.00;;;;;;;12.35;91.59;94726.63;4310223;33;20264;-61
2023/10/22 04:34:45;;;;;;;0.40;0.40;;;;;;;12.37;92.24;94726.31;4288223;33;20186;-61
2023/10/22 04:37:13;;;;;;;0.00;0.00;;;;;;;12.33;92.17;94720.84;4289525;33;20209;-61
2023/10/22 04:39:38;;;;;;;0.00;0.00;;;;;;;12.34;91.84;94722.41;4315164;33;20229;-63
2023/10/22 04:42:05;;;;;;;0.00;0.00;;;;;;;12.28;92.23;94726.34;4291774;33;20209;-61
2023/10/22 04:44:31;;;;;;;0.00;0.00;;;;;;;12.31;92.03;94724.94;4323618;33;20235;-61
2023/10/22 04:46:57;;;;;;;0.03;0.03;;;;;;;12.37;91.03;94724.44;4275544;33;20190;-61
2023/10/22 04:49:22;;;;;;;0.10;0.10;;;;;;;12.33;91.60;94722.72;4311648;33;20216;-61
2023/10/22 04:51:50;;;;;;;0.00;0.00;;;;;;;12.43;90.95;94722.41;4302626;33;20194;-60
2023/10/22 04:54:15;;;;;;;0.20;0.20;;;;;;;12.48;90.50;94734.72;4305645;33;20234;-61
2023/10/22 04:56:42;;;;;;;0.60;0.07;;;;;;;12.44;90.46;94728.50;4321109;33;20230;-61
2023/10/22 04:59:07;;;;;;;0.00;0.00;;;;;;;12.42;90.33;94736.78;4284063;33;20217;-61
2023/10/22 05:01:33;;;;;;;0.00;0.00;;;;;;;12.41;90.55;94739.78;4316839;33;20229;-61
2023/10/22 05:03:59;;;;;;;0.00;0.00;;;;;;;12.42;90.76;94739.44;4304702;33;20303;-61
2023/10/22 05:06:25;;;;;;;0.00;0.00;;;;;;;12.35;90.84;94742.59;4310628;33;20220;-61
2023/10/22 05:08:50;;;;;;;0.03;0.03;;;;;;;12.39;90.49;94751.50;4307385;33;20257;-61
2023/10/22 05:11:21;;;;;;;0.00;0.00;;;;;;;12.44;90.36;94749.78;4324970;32;20212;-61
2023/10/22 05:13:47;;;;;;;0.00;0.00;;;;;;;12.34;90.48;94756.22;4284445;33;20194;-61
2023/10/22 05:16:14;;;;;;;0.00;0.00;;;;;;;12.24;91.29;94757.34;4314651;33;20249;-61
2023/10/22 05:18:40;;;;;;;12.73;0.30;;;;;;;12.28;91.37;94760.13;4310377;33;20272;-61
2023/10/22 05:21:06;;;;;;;0.10;0.10;;;;;;;12.38;90.30;94768.56;4316440;33;20241;-61
2023/10/22 05:23:33;;;;;;;0.07;0.07;;;;;;;12.41;90.44;94771.69;4281153;33;20182;-61
2023/10/22 05:26:15;;;;;;;0.10;0.10;;;;;;;12.43;90.04;94774.81;4298244;33;20265;-60
2023/10/22 05:28:41;;;;;;;0.10;0.10;;;;;;;12.36;90.29;94768.09;4288321;33;20260;-61
2023/10/22 05:31:15;;;;;;;0.00;0.00;;;;;;;12.30;90.44;94774.69;4306463;33;20233;-61
2023/10/22 05:33:42;;;;;;;0.10;0.10;;;;;;;12.32;90.80;94771.72;4320488;33;20185;-61
2023/10/22 05:36:27;;;;;;;0.23;0.23;;;;;;;12.28;90.65;94776.09;4294873;33;20260;-61
2023/10/22 05:38:54;;;;;;;0.00;0.00;;;;;;;12.40;89.98;94784.22;4323688;33;20204;-61
2023/10/22 05:41:25;;;;;;;0.30;0.00;;;;;;;12.42;89.54;94770.59;4305964;33;20257;-61
2023/10/22 05:43:59;;;;;;;0.00;0.00;;;;;;;12.41;89.55;94777.78;4316870;33;20189;-61
2023/10/22 05:46:26;;;;;;;0.00;0.00;;;;;;;12.25;90.37;94782.84;4280179;33;20189;-61
2023/10/22 05:48:52;;;;;;;0.03;0.03;;;;;;;12.28;89.83;94784.84;4301936;33;20205;-61
2023/10/22 05:51:19;;;;;;;0.00;0.00;;;;;;;12.16;91.18;94781.28;4286909;33;20202;-61
2023/10/22 05:53:46;;;;;;;0.00;0.00;;;;;;;12.29;90.39;94791.72;4317951;33;20241;-61
2023/10/22 05:56:13;;;;;;;0.00;0.00;;;;;;;12.30;90.00;94797.84;4311749;33;20256;-61
2023/10/22 05:58:39;;;;;;;0.03;0.03;;;;;;;12.31;90.22;94800.19;4285232;33;20406;-62
2023/10/22 06:01:08;;;;;;;0.10;0.10;;;;;;;12.20;91.31;94800.84;4278589;33;20198;-61
2023/10/22 06:03:37;;;;;;;0.00;0.00;;;;;;;12.18;91.60;94801.16;4304740;33;20193;-61
2023/10/22 06:06:04;;;;;;;0.10;0.10;;;;;;;12.19;91.06;94809.91;4284923;33;20190;-61
2023/10/22 06:08:29;;;;;;;0.00;0.00;;;;;;;12.15;90.73;94815.09;4299739;33;20190;-61
2023/10/22 06:10:54;;;;;;;0.00;0.00;;;;;;;12.31;90.40;94813.47;4325238;33;20251;-61
2023/10/22 06:13:20;;;;;;;0.10;0.10;;;;;;;12.38;89.35;94819.09;4306769;33;20181;-61
2023/10/22 06:15:45;;;;;;;0.10;0.10;;;;;;;12.28;89.90;94823.97;4298035;33;20202;-61
2023/10/22 06:18:12;;;;;;;0.10;0.10;;;;;;;12.38;89.74;94831.63;4305990;33;20204;-61
2023/10/22 06:20:38;;;;;;;0.10;0.10;;;;;;;12.17;89.99;94842.13;4311675;33;20182;-62
2023/10/22 06:23:05;;;;;;;0.10;0.10;;;;;;;12.30;89.16;94843.06;4300273;33;20208;-61
2023/10/22 06:25:32;;;;;;;0.10;0.10;;;;;;;12.26;88.76;94848.22;4297129;33;20231;-61
2023/10/22 06:28:00;;;;;;;0.00;0.00;;;;;;;12.41;88.23;94854.16;4286461;33;20185;-61
2023/10/22 06:30:28;;;;;;;0.10;0.10;;;;;;;12.47;88.53;94858.22;4283900;33;20202;-61
2023/10/22 06:32:56;;;;;;;0.00;0.00;;;;;;;12.41;88.86;94862.13;4306950;33;20212;-61
2023/10/22 06:35:27;;;;;;;0.30;0.20;;;;;;;12.48;88.60;94867.75;4276570;33;20209;-61
2023/10/22 06:37:53;;;;;;;0.13;0.13;;;;;;;12.50;88.92;94865.53;4299722;33;20185;-61
2023/10/22 06:40:24;;;;;;;0.00;0.00;;;;;;;12.48;88.23;94875.72;4311504;33;20193;-61
2023/10/22 06:42:50;;;;;;;0.00;0.00;;;;;;;12.58;88.82;94872.75;4323940;33;20225;-61
2023/10/22 06:45:17;;;;;;;0.10;0.10;;;;;;;12.62;88.72;94881.66;4288721;33;20251;-61
2023/10/22 06:47:45;;;;;;;0.00;0.00;;;;;;;12.55;88.07;94878.69;4310353;33;20187;-61
2023/10/22 06:50:12;;;;;;;0.20;0.20;;;;;;;12.57;89.81;94882.59;4321528;33;20193;-61
2023/10/22 06:52:39;;;;;;;0.10;0.10;;;;;;;12.67;88.77;94889.50;4313446;33;20214;-61
2023/10/22 06:55:06;;;;;;;0.00;0.00;;;;;;;12.57;88.74;94895.13;4274475;33;20197;-61
2023/10/22 06:57:32;;;;;;;0.00;0.00;;;;;;;12.75;88.00;94896.66;4292411;33;20206;-61
2023/10/22 06:59:58;;;;;;;0.30;0.30;;;;;;;12.73;88.17;94899.63;4318692;33;20190;-61
2023/10/22 07:02:26;;;;;;;0.20;0.20;;;;;;;12.65;88.32;94904.97;4299899;33;20208;-61
2023/10/22 07:04:56;;;;;;;0.00;0.00;;;;;;;12.73;88.49;94906.84;4274679;33;20197;-61
2023/10/22 07:07:24;;;;;;;0.20;0.20;;;;;;;12.82;88.67;94915.59;4286640;33;20201;-61
2023/10/22 07:09:50;;;;;;;0.00;0.00;;;;;;;12.72;89.56;94916.69;4303770;33;20238;-61
2023/10/22 07:12:17;;;;;;;0.00;0.00;;;;;;;12.70;88.85;94918.09;4313789;33;20185;-61
2023/10/22 07:14:44;;;;;;;0.53;0.30;;;;;;;12.71;88.34;94920.44;4301646;33;20213;-61
2023/10/22 07:17:12;;;;;;;0.20;0.20;;;;;;;12.60;87.42;94923.78;4281403;33;20217;-61
2023/10/22 07:19:40;;;;;;;0.10;0.10;;;;;;;12.69;88.73;94932.50;4300326;33;20198;-61
2023/10/22 07:22:06;;;;;;;0.20;0.20;;;;;;;12.67;88.34;94929.41;4309211;33;20253;-61
2023/10/22 07:24:34;;;;;;;0.50;0.50;;;;;;;12.74;87.67;94929.69;4308275;33;20186;-61
2023/10/22 07:27:01;;;;;;;0.40;0.40;;;;;;;12.77;87.62;94933.59;4294780;33;20212;-61
2023/10/22 07:29:28;;;;;;;0.83;0.50;;;;;;;12.80;87.82;94932.97;4293092;33;20241;-61
2023/10/22 07:31:54;;;;;;;0.30;0.30;;;;;;;12.87;87.84;94928.75;4295885;33;20241;-61
2023/10/22 07:34:23;;;;;;;0.10;0.10;;;;;;;12.85;88.31;94938.91;4315214;33;20227;-61
2023/10/22 07:36:49;;;;;;;0.27;0.27;;;;;;;12.90;88.37;94938.72;4309823;33;20202;-61
2023/10/22 07:39:14;;;;;;;0.27;0.27;;;;;;;12.89;88.41;94937.16;4315090;32;20217;-62
2023/10/22 07:41:40;;;;;;;0.10;0.10;;;;;;;12.88;88.49;94942.84;4315312;33;20194;-61
2023/10/22 07:44:05;;;;;;;0.00;0.00;;;;;;;12.66;88.40;94943.81;4300919;33;20238;-61
2023/10/22 07:46:33;;;;;;;0.10;0.10;;;;;;;12.63;88.79;94939.13;4314689;33;20285;-61
2023/10/22 07:48:59;;;;;;;0.50;0.23;;;;;;;12.84;88.52;94944.56;4306682;33;20303;-61
2023/10/22 07:51:27;;;;;;;1.23;0.40;;;;;;;12.60;88.66;94948.50;4280769;33;20254;-61
2023/10/22 07:53:53;;;;;;;0.37;0.37;;;;;;;12.83;87.97;94956.31;4327903;33;20189;-61
2023/10/22 07:56:21;;;;;;;0.10;0.10;;;;;;;12.86;88.00;94959.12;4328196;33;20217;-61
2023/10/22 07:58:47;;;;;;;0.07;0.07;;;;;;;12.88;88.02;94962.25;4290870;33;20198;-60
2023/10/22 08:01:14;;;;;;;0.20;0.20;;;;;;;12.77;87.86;94961.00;4265228;33;20186;-62
2023/10/22 08:03:39;;;;;;;0.00;0.00;;;;;;;12.87;87.51;94966.00;4302387;33;20197;-61
2023/10/22 08:06:06;;;;;;;0.30;0.30;;;;;;;12.85;87.92;94972.75;4302241;33;20222;-61
2023/10/22 08:08:33;;;;;;;0.10;0.10;;;;;;;12.82;88.19;94974.16;4317438;33;20281;-61
2023/10/22 08:11:01;;;;;;;0.20;0.20;;;;;;;12.83;88.31;94969.63;4304413;33;20257;-61
2023/10/22 08:13:28;;;;;;;0.40;0.40;;;;;;;12.81;87.96;94982.44;4249239;33;20226;-61
2023/10/22 08:15:57;;;;;;;0.00;0.00;;;;;;;12.79;88.47;94980.09;4298155;33;20212;-61
2023/10/22 08:18:24;;;;;;;0.10;0.10;;;;;;;12.73;88.61;94984.81;4318064;33;20185;-61
2023/10/22 08:20:50;;;;;;;0.00;0.00;;;;;;;12.38;88.42;94993.91;4306032;33;20194;-61
2023/10/22 08:23:15;;;;;;;1.37;0.30;;;;;;;12.48;88.95;94990.91;4308726;33;20198;-61
2023/10/22 08:25:52;;;;;;;0.00;0.00;;;;;;;12.67;89.12;94998.59;4303028;33;20197;-62
2023/10/22 08:28:19;;;;;;;0.40;0.40;;;;;;;12.43;89.44;94995.63;4314207;33;20248;-61
2023/10/22 08:30:49;;;;;;;0.37;0.37;;;;;;;12.61;89.49;95000.63;4281673;33;20193;-61
2023/10/22 08:33:20;;;;;;;0.17;0.17;;;;;;;12.74;89.67;95004.22;4289592;33;20272;-61
2023/10/22 08:35:46;;;;;;;2.83;0.30;;;;;;;12.67;90.56;95004.72;4304923;33;20216;-61
2023/10/22 08:38:15;;;;;;;0.10;0.10;;;;;;;12.66;90.55;95005.81;4291741;33;20202;-61
2023/10/22 08:40:41;;;;;;;0.33;0.30;;;;;;;12.79;90.10;95012.03;4315666;33;20209;-61
2023/10/22 08:43:33;;;;;;;0.00;0.00;;;;;;;12.64;88.73;95007.22;4290755;33;20198;-60
2023/10/22 08:45:58;;;;;;;0.30;0.30;;;;;;;12.71;87.72;95004.84;4306309;33;21373;-61
2023/10/22 08:48:27;;;;;;;0.07;0.07;;;;;;;12.78;87.79;95009.69;4315533;32;20208;-61
2023/10/22 08:50:52;;;;;;;0.30;0.17;;;;;;;12.77;88.78;95011.56;4304375;33;20233;-61
2023/10/22 08:53:18;;;;;;;0.03;0.03;;;;;;;12.81;88.27;95015.19;4321873;33;20193;-61
2023/10/22 08:55:46;;;;;;;0.13;0.10;;;;;;;12.74;88.18;95025.50;4287794;33;20213;-61
2023/10/22 08:58:20;;;;;;;0.10;0.10;;;;;;;12.77;88.20;95019.56;4318864;33;20257;-61
2023/10/22 09:00:49;;;;;;;0.10;0.10;;;;;;;12.88;88.44;95018.16;4307942;33;20249;-61
2023/10/22 09:03:18;;;;;;;0.13;0.13;;;;;;;13.00;88.30;95012.19;4285481;33;20301;-61
2023/10/22 09:05:46;;;;;;;0.00;0.00;;;;;;;13.14;88.06;95012.00;4288164;33;20210;-60
2023/10/22 09:08:15;;;;;;;0.03;0.03;;;;;;;13.06;88.12;95014.38;4273798;32;20203;-60
2023/10/22 09:10:42;;;;;;;0.17;0.17;;;;;;;13.21;87.06;95012.31;4282649;33;20282;-60
2023/10/22 09:13:25;;;;;;;0.07;0.07;;;;;;;13.22;85.56;95019.22;4322989;33;20220;-61
2023/10/22 09:15:57;;;;;;;0.10;0.10;;;;;;;13.22;84.27;95019.22;4245440;33;20238;-60
2023/10/22 09:18:22;;;;;;;0.40;0.40;;;;;;;13.32;83.24;95016.22;4299779;33;20209;-61
2023/10/22 09:20:49;;;;;;;0.20;0.20;;;;;;;13.44;82.47;95007.56;4313753;33;20209;-61
2023/10/22 09:23:21;;;;;;;0.20;0.20;;;;;;;13.48;80.79;95011.94;4286582;33;20234;-60
2023/10/22 09:25:53;;;;;;;0.20;0.20;;;;;;;13.49;80.44;95013.50;4287241;33;20190;-60
2023/10/22 09:28:26;;;;;;;0.23;0.23;;;;;;;13.47;80.44;95010.38;4268801;33;20194;-60
2023/10/22 09:31:01;;;;;;;0.30;0.30;;;;;;;13.34;80.15;95009.47;4299790;33;20249;-60
2023/10/22 09:33:44;;;;;;;0.00;0.00;;;;;;;13.47;80.90;95007.72;4285516;33;20182;-60
2023/10/22 09:36:11;;;;;;;0.20;0.20;;;;;;;13.59;81.44;95002.50;4297764;33;20194;-60
2023/10/22 09:38:49;;;;;;;0.20;0.20;;;;;;;13.59;81.79;95007.81;4306698;33;20249;-60
2023/10/22 09:41:32;;;;;;;0.53;0.30;;;;;;;13.63;79.71;95006.09;4299102;33;20185;-60
2023/10/22 09:44:01;;;;;;;0.00;0.00;;;;;;;13.71;77.81;95015.94;4327676;33;20374;-59
2023/10/22 09:46:34;;;;;;;0.43;0.43;;;;;;;13.58;78.69;95011.59;4314244;33;20205;-60
2023/10/22 09:49:07;;;;;;;0.23;0.23;;;;;;;13.56;79.44;95021.00;4265464;33;20291;-60
2023/10/22 09:51:37;;;;;;;1.60;0.20;;;;;;;13.64;78.06;95025.53;4286331;33;20280;-60
2023/10/22 09:54:11;;;;;;;0.00;0.00;;;;;;;13.70;77.99;95009.03;4318117;33;20193;-60
2023/10/22 09:56:50;;;;;;;0.03;0.03;;;;;;;13.69;78.94;95012.81;4299758;33;20257;-60
2023/10/22 09:59:20;;;;;;;0.10;0.10;;;;;;;13.71;79.39;95015.94;4293928;33;20194;-60
2023/10/22 10:01:45;;;;;;;0.20;0.20;;;;;;;13.77;79.17;95014.63;4309078;33;20204;-60
2023/10/22 10:04:17;;;;;;;0.17;0.17;;;;;;;13.86;78.04;95011.16;4293746;33;20217;-60
2023/10/22 10:06:44;;;;;;;0.40;0.40;;;;;;;13.93;78.36;95017.53;4325174;33;20194;-61
2023/10/22 10:09:11;;;;;;;0.10;0.10;;;;;;;13.93;78.00;95020.22;4313133;33;20189;-61
2023/10/22 10:11:40;;;;;;;0.00;0.00;;;;;;;13.94;78.53;95013.78;4289898;33;20189;-60
2023/10/22 10:14:33;;;;;;;0.27;0.27;;;;;;;13.99;78.48;95021.59;4303671;33;20228;-60
2023/10/22 10:17:01;;;;;;;0.10;0.10;;;;;;;13.99;79.53;95010.94;4320528;33;20190;-60
2023/10/22 10:19:28;;;;;;;2.80;0.47;;;;;;;14.05;77.49;95011.53;4326055;33;20213;-60
2023/10/22 10:21:55;;;;;;;0.03;0.03;;;;;;;14.06;77.59;95013.88;4276412;33;20186;-60
2023/10/22 10:24:44;;;;;;;0.30;0.30;;;;;;;14.15;75.78;95013.03;4320765;33;20279;-60
2023/10/22 10:27:13;;;;;;;0.20;0.20;;;;;;;14.20;76.77;95016.31;4311130;33;20236;-60
2023/10/22 10:29:40;;;;;;;0.33;0.27;;;;;;;14.23;74.57;95010.31;4322132;33;20236;-60
2023/10/22 10:32:17;;;;;;;0.20;0.20;;;;;;;14.28;74.89;95009.34;4316224;33;20196;-60
2023/10/22 10:34:50;;;;;;;0.20;0.20;;;;;;;14.34;75.61;95008.81;4316490;33;20224;-60
2023/10/22 10:37:20;;;;;;;0.30;0.30;;;;;;;14.30;75.23;94999.94;4320816;33;20205;-60
2023/10/22 10:39:52;;;;;;;0.53;0.20;;;;;;;14.38;75.28;94996.41;4267257;33;20245;-60
2023/10/22 10:42:32;;;;;;;0.20;0.20;;;;;;;14.44;73.59;95000.47;4303683;33;20186;-60
2023/10/22 10:45:00;;;;;;;0.10;0.10;;;;;;;14.60;72.15;95005.22;4302442;33;20201;-60
2023/10/22 10:47:34;;;;;;;0.10;0.10;;;;;;;14.63;70.71;95000.03;4304086;33;20297;-60
2023/10/22 10:50:11;;;;;;;1.13;0.73;;;;;;;14.51;68.90;95005.31;4326328;33;20358;-60
2023/10/22 10:52:44;;;;;;;0.10;0.10;;;;;;;14.63;67.79;95001.91;4302522;33;20205;-60
2023/10/22 10:55:21;;;;;;;0.47;0.30;;;;;;;14.57;69.72;95003.19;4291622;33;20208;-61
2023/10/22 10:57:57;;;;;;;0.17;0.17;;;;;;;14.58;69.96;95005.53;4273905;33;20261;-60
2023/10/22 11:00:31;;;;;;;1.00;0.37;;;;;;;14.57;70.05;95008.53;4297385;33;20189;-60
2023/10/22 11:03:04;;;;;;;0.13;0.13;;;;;;;14.54;69.48;95003.88;4310867;33;20240;-60
2023/10/22 11:05:42;;;;;;;0.20;0.20;;;;;;;14.56;70.34;95006.97;4311537;33;20256;-60
2023/10/22 11:08:21;;;;;;;3.70;0.70;;;;;;;14.53;70.33;95010.31;4311415;33;20221;-60
2023/10/22 11:10:50;;;;;;;0.20;0.20;;;;;;;14.55;67.53;95006.19;4308014;33;20197;-60
2023/10/22 11:13:24;;;;;;;0.20;0.20;;;;;;;14.60;69.48;95014.00;4294451;33;20215;-60
2023/10/22 11:15:53;;;;;;;1.37;0.47;;;;;;;14.64;68.19;95006.91;4302187;33;20193;-60
2023/10/22 11:18:20;;;;;;;0.10;0.10;;;;;;;14.65;68.86;95005.03;4301037;33;20209;-60
2023/10/22 11:20:56;;;;;;;0.10;0.10;;;;;;;14.65;68.65;95000.47;4284158;33;20202;-60
2023/10/22 11:23:23;;;;;;;0.20;0.20;;;;;;;14.68;67.40;95007.84;4300124;33;20221;-60
2023/10/22 11:25:50;;;;;;;0.10;0.10;;;;;;;14.79;67.65;95003.66;4296300;33;20205;-60
2023/10/22 11:28:18;;;;;;;0.23;0.13;;;;;;;14.83;67.77;95006.44;4307357;33;20185;-61
2023/10/22 11:30:43;;;;;;;3.23;0.40;;;;;;;14.86;67.19;94999.69;4309568;33;20204;-60
2023/10/22 11:33:26;;;;;;;0.00;0.00;;;;;;;14.83;67.69;94994.97;4326366;33;20194;-60
2023/10/22 11:36:00;;;;;;;0.10;0.10;;;;;;;14.78;68.16;94995.97;4293841;33;20240;-60
2023/10/22 11:38:27;;;;;;;0.27;0.27;;;;;;;14.71;68.35;94991.16;4291103;33;20195;-60
2023/10/22 11:40:55;;;;;;;0.50;0.50;;;;;;;14.76;68.71;94992.84;4314060;33;20209;-60
2023/10/22 11:43:26;;;;;;;0.10;0.10;;;;;;;14.68;69.55;94994.50;4321405;33;20233;-60
2023/10/22 11:45:56;;;;;;;0.10;0.10;;;;;;;14.59;69.36;94996.44;4305456;33;20204;-60
2023/10/22 11:48:25;;;;;;;0.30;0.30;;;;;;;14.69;67.53;95000.59;4283346;33;20272;-60
2023/10/22 11:51:05;;;;;;;0.20;0.20;;;;;;;14.74;68.27;94989.72;4290409;33;20245;-60
2023/10/22 11:53:41;;;;;;;1.07;0.33;;;;;;;14.80;66.06;94996.41;4323623;33;20288;-60
2023/10/22 11:56:11;;;;;;;0.30;0.30;;;;;;;14.81;66.00;94986.53;4303086;33;20193;-60
2023/10/22 11:58:37;;;;;;;0.40;0.40;;;;;;;14.83;65.92;94995.75;4302141;33;20300;-60
2023/10/22 12:01:04;;;;;;;0.20;0.20;;;;;;;14.68;66.37;95004.38;4316445;33;20190;-60
2023/10/22 12:03:30;;;;;;;0.10;0.10;;;;;;;14.60;67.41;94999.88;4288584;33;20273;-60
2023/10/22 12:05:56;;;;;;;0.10;0.10;;;;;;;14.65;67.68;94999.69;4308328;33;20189;-60
2023/10/22 12:08:23;;;;;;;0.33;0.33;;;;;;;14.70;66.02;95004.84;4302379;33;20225;-60
2023/10/22 12:10:51;;;;;;;0.10;0.10;;;;;;;14.75;66.20;94999.31;4302293;33;20265;-60
2023/10/22 12:13:19;;;;;;;0.63;0.40;;;;;;;14.72;68.28;95003.41;4315189;33;20212;-60
2023/10/22 12:15:44;;;;;;;0.00;0.00;;;;;;;14.79;66.91;95005.53;4293389;33;20208;-60
2023/10/22 12:18:14;;;;;;;0.20;0.20;;;;;;;14.84;66.98;95004.56;4286062;33;20258;-61